Irigoien Berria — EAGS — position and weather

sailwx.info

Track history (hours):
 
Tides and Currents Weather Stations Pressure Air Temp Water Temp Dewpoint Dewpoint Depression Visibility Wind Speed Wind Dir Waves Ship Positions

Irigoien Berria

Last reported at 2017-Nov-23 13:08 UTC. Time now 2017-Nov-24 09:35 UTC.
Position N 43°18' W 002°12'.

Length 35 m.

Type: Fishing. MMSI: 224004770.

Date/timePositionNaut miles runAvg speedWind from/ knotsBaromVisibWave heightAir tempDewpointWater temp
2017-Nov-23 13:08N 43°18' W 002°12'0 0.0
2017-Nov-23 12:38N 43°18' W 002°12'0 0.0
2017-Nov-23 12:08N 43°18' W 002°12'0 0.0
2017-Nov-23 11:50N 43°18' W 002°12'0 0.0
2017-Nov-23 11:26N 43°18' W 002°12'0 0.0
2017-Nov-23 10:44N 43°18' W 002°12'0 0.0
2017-Nov-23 10:23N 43°18' W 002°12'0 0.0
2017-Nov-23 08:44N 43°18' W 002°12'0 0.0
2017-Nov-23 08:20N 43°18' W 002°12'  
2017-Nov-17 12:04N 43°18' W 002°12'0 3.5
2017-Nov-17 11:59N 43°18' W 002°12'510.7
2017-Nov-17 11:30N 43°23' W 002°08'510.8
2017-Nov-17 11:00N 43°28' W 002°05'510.6
2017-Nov-17 10:30N 43°32' W 002°01'510.5
2017-Nov-17 10:00N 43°37' W 001°58'510.6
2017-Nov-17 09:30N 43°42' W 001°54'610.7
2017-Nov-17 08:58N 43°47' W 001°51'510.8
2017-Nov-17 08:30N 43°51' W 001°47'510.5
2017-Nov-17 08:00N 43°56' W 001°44'510.7
2017-Nov-17 07:30N 44°00' W 001°40'510.4
2017-Nov-17 07:00N 44°05' W 001°36'510.6
2017-Nov-17 06:30N 44°09' W 001°33'5 9.4
2017-Nov-17 05:57N 44°14' W 001°29'0 0.4
2017-Nov-17 05:30N 44°14' W 001°29'0 0.1
2017-Nov-17 05:00N 44°14' W 001°29'0 0.1
2017-Nov-17 04:30N 44°14' W 001°29'1 1.6
2017-Nov-17 04:00N 44°13' W 001°28'2 3.9
2017-Nov-17 03:26N 44°12' W 001°31'0 0.3
2017-Nov-17 02:53N 44°12' W 001°30'0 0.3
2017-Nov-17 02:29N 44°12' W 001°30'0 0.1
2017-Nov-17 02:00N 44°12' W 001°30'2 3.3
2017-Nov-17 01:30N 44°10' W 001°31'5 9.3
2017-Nov-17 01:00N 44°06' W 001°31'5 9.2
2017-Nov-17 00:30N 44°01' W 001°32'4 7.9
2017-Nov-17 00:00N 43°58' W 001°35'3 6.3
2017-Nov-16 23:30N 43°55' W 001°36'0 0.2
2017-Nov-16 23:00N 43°55' W 001°36'0 0.5
2017-Nov-16 22:18N 43°55' W 001°35'3 8.8
2017-Nov-16 21:55N 43°58' W 001°34'6 3.0
2017-Nov-16 20:00N 43°54' W 001°40'0 0.3
2017-Nov-16 19:30N 43°54' W 001°40'0 0.2
2017-Nov-16 19:00N 43°54' W 001°40'2 3.0
2017-Nov-16 18:30N 43°53' W 001°41'510.2
2017-Nov-16 18:00N 43°49' W 001°45'5 9.9
2017-Nov-16 17:30N 43°45' W 001°49'5 9.7
2017-Nov-16 17:00N 43°41' W 001°53'5 9.9
2017-Nov-16 16:30N 43°37' W 001°57'510.0
2017-Nov-16 16:00N 43°32' W 002°01'5 9.8
2017-Nov-16 15:30N 43°28' W 002°04'5 9.7
2017-Nov-16 15:00N 43°24' W 002°08'5 9.9
2017-Nov-16 14:30N 43°20' W 002°11'2 0.8
2017-Nov-16 12:29N 43°18' W 002°12'510.5
2017-Nov-16 12:00N 43°23' W 002°08'510.9
2017-Nov-16 11:30N 43°27' W 002°04'510.8
2017-Nov-16 11:00N 43°32' W 002°00'510.7
2017-Nov-16 10:31N 43°36' W 001°56'510.6
2017-Nov-16 10:00N 43°41' W 001°52'610.9
2017-Nov-16 09:29N 43°45' W 001°48'510.8
2017-Nov-16 09:00N 43°50' W 001°44'510.5
2017-Nov-16 08:30N 43°54' W 001°40'510.4
2017-Nov-16 08:00N 43°58' W 001°36'510.5
2017-Nov-16 07:30N 44°03' W 001°32'3 6.0
2017-Nov-16 07:00N 44°05' W 001°29'2 4.7
2017-Nov-16 06:28N 44°08' W 001°28'0 0.3
2017-Nov-16 06:00N 44°08' W 001°28'0 0.3
2017-Nov-16 05:28N 44°08' W 001°28'0 0.4
2017-Nov-16 05:00N 44°08' W 001°28'2 4.9
2017-Nov-16 04:30N 44°08' W 001°32'0 0.5
2017-Nov-16 04:00N 44°08' W 001°31'0 0.4
2017-Nov-16 03:30N 44°09' W 001°31'0 0.4
2017-Nov-16 02:55N 44°09' W 001°31'1 3.0
2017-Nov-16 02:30N 44°07' W 001°30'1 0.9
2017-Nov-16 00:52N 44°07' W 001°32'0 0.2
2017-Nov-16 00:29N 44°07' W 001°32'1 1.3
2017-Nov-16 00:00N 44°08' W 001°32'2 1.1
2017-Nov-15 21:54N 44°10' W 001°31'0 0.1
2017-Nov-15 21:27N 44°10' W 001°31'0 0.1
2017-Nov-15 20:08N 44°10' W 001°31'0 0.3
2017-Nov-15 19:56N 44°10' W 001°31'2 3.9
2017-Nov-15 19:28N 44°11' W 001°30'1 1.0
2017-Nov-15 18:28N 44°11' W 001°31'2 5.0
2017-Nov-15 18:00N 44°09' W 001°32'1 2.2
2017-Nov-15 17:30N 44°10' W 001°33'0 0.8
2017-Nov-15 16:55N 44°10' W 001°34'0 0.5
2017-Nov-15 16:22N 44°10' W 001°33'0 0.4
2017-Nov-15 15:55N 44°10' W 001°33'0 0.3
2017-Nov-15 15:19N 44°10' W 001°33'0 0.3
2017-Nov-15 15:00N 44°11' W 001°33'0 0.2
2017-Nov-15 14:28N 44°11' W 001°33'0 0.3
2017-Nov-15 13:58N 44°11' W 001°33'0 0.2
2017-Nov-15 13:29N 44°11' W 001°33'0 0.2
2017-Nov-15 12:58N 44°11' W 001°33'0 0.2
2017-Nov-15 12:22N 44°11' W 001°33'1 0.4
2017-Nov-15 10:26N 44°12' W 001°32'0 0.4
2017-Nov-15 09:55N 44°12' W 001°32'2 2.5
2017-Nov-15 08:56N 44°09' W 001°31'4 8.6
2017-Nov-15 08:26N 44°06' W 001°34'1 2.3
2017-Nov-15 07:59N 44°07' W 001°33'17 1.0
2017-Nov-14 14:52N 43°51' W 001°43'4 8.6
2017-Nov-14 14:27N 43°48' W 001°46'4 8.7
2017-Nov-14 14:00N 43°44' W 001°49'4 8.4
2017-Nov-14 13:30N 43°41' W 001°52'4 8.3
2017-Nov-14 13:00N 43°37' W 001°55'4 8.3
2017-Nov-14 12:30N 43°34' W 001°58'4 8.1
2017-Nov-14 12:00N 43°30' W 002°00'4 8.0
2017-Nov-14 11:30N 43°27' W 002°03'4 8.4
2017-Nov-14 11:00N 43°23' W 002°07'4 8.9
2017-Nov-14 10:30N 43°20' W 002°10'  
Track history (hours):
 
Tides and Currents Weather Stations Pressure Air Temp Water Temp Dewpoint Dewpoint Depression Visibility Wind Speed Wind Dir Waves Ship Positions

Irigoien Berria

Last reported at 2017-Nov-23 13:08 UTC. Time now 2017-Nov-24 09:35 UTC.
Position N 43°18' W 002°12'.

Length 35 m.

Type: Fishing. MMSI: 224004770.

Date/timePositionNaut miles runAvg speedWind from/ knotsBaromVisibWave heightAir tempDewpointWater temp
2017-Nov-23 13:08N 43°18' W 002°12'0 0.0
2017-Nov-23 12:38N 43°18' W 002°12'0 0.0
2017-Nov-23 12:08N 43°18' W 002°12'0 0.0
2017-Nov-23 11:50N 43°18' W 002°12'0 0.0
2017-Nov-23 11:26N 43°18' W 002°12'0 0.0
2017-Nov-23 10:44N 43°18' W 002°12'0 0.0
2017-Nov-23 10:23N 43°18' W 002°12'0 0.0
2017-Nov-23 08:44N 43°18' W 002°12'0 0.0
2017-Nov-23 08:20N 43°18' W 002°12'  
2017-Nov-17 12:04N 43°18' W 002°12'0 3.5
2017-Nov-17 11:59N 43°18' W 002°12'510.7
2017-Nov-17 11:30N 43°23' W 002°08'510.8
2017-Nov-17 11:00N 43°28' W 002°05'510.6
2017-Nov-17 10:30N 43°32' W 002°01'510.5
2017-Nov-17 10:00N 43°37' W 001°58'510.6
2017-Nov-17 09:30N 43°42' W 001°54'610.7
2017-Nov-17 08:58N 43°47' W 001°51'510.8
2017-Nov-17 08:30N 43°51' W 001°47'510.5
2017-Nov-17 08:00N 43°56' W 001°44'510.7
2017-Nov-17 07:30N 44°00' W 001°40'510.4
2017-Nov-17 07:00N 44°05' W 001°36'510.6
2017-Nov-17 06:30N 44°09' W 001°33'5 9.4
2017-Nov-17 05:57N 44°14' W 001°29'0 0.4
2017-Nov-17 05:30N 44°14' W 001°29'0 0.1
2017-Nov-17 05:00N 44°14' W 001°29'0 0.1
2017-Nov-17 04:30N 44°14' W 001°29'1 1.6
2017-Nov-17 04:00N 44°13' W 001°28'2 3.9
2017-Nov-17 03:26N 44°12' W 001°31'0 0.3
2017-Nov-17 02:53N 44°12' W 001°30'0 0.3
2017-Nov-17 02:29N 44°12' W 001°30'0 0.1
2017-Nov-17 02:00N 44°12' W 001°30'2 3.3
2017-Nov-17 01:30N 44°10' W 001°31'5 9.3
2017-Nov-17 01:00N 44°06' W 001°31'5 9.2
2017-Nov-17 00:30N 44°01' W 001°32'4 7.9
2017-Nov-17 00:00N 43°58' W 001°35'3 6.3
2017-Nov-16 23:30N 43°55' W 001°36'0 0.2
2017-Nov-16 23:00N 43°55' W 001°36'0 0.5
2017-Nov-16 22:18N 43°55' W 001°35'3 8.8
2017-Nov-16 21:55N 43°58' W 001°34'6 3.0
2017-Nov-16 20:00N 43°54' W 001°40'0 0.3
2017-Nov-16 19:30N 43°54' W 001°40'0 0.2
2017-Nov-16 19:00N 43°54' W 001°40'2 3.0
2017-Nov-16 18:30N 43°53' W 001°41'510.2
2017-Nov-16 18:00N 43°49' W 001°45'5 9.9
2017-Nov-16 17:30N 43°45' W 001°49'5 9.7
2017-Nov-16 17:00N 43°41' W 001°53'5 9.9
2017-Nov-16 16:30N 43°37' W 001°57'510.0
2017-Nov-16 16:00N 43°32' W 002°01'5 9.8
2017-Nov-16 15:30N 43°28' W 002°04'5 9.7
2017-Nov-16 15:00N 43°24' W 002°08'5 9.9
2017-Nov-16 14:30N 43°20' W 002°11'2 0.8
2017-Nov-16 12:29N 43°18' W 002°12'510.5
2017-Nov-16 12:00N 43°23' W 002°08'510.9
2017-Nov-16 11:30N 43°27' W 002°04'510.8
2017-Nov-16 11:00N 43°32' W 002°00'510.7
2017-Nov-16 10:31N 43°36' W 001°56'510.6
2017-Nov-16 10:00N 43°41' W 001°52'610.9
2017-Nov-16 09:29N 43°45' W 001°48'510.8
2017-Nov-16 09:00N 43°50' W 001°44'510.5
2017-Nov-16 08:30N 43°54' W 001°40'510.4
2017-Nov-16 08:00N 43°58' W 001°36'510.5
2017-Nov-16 07:30N 44°03' W 001°32'3 6.0
2017-Nov-16 07:00N 44°05' W 001°29'2 4.7
2017-Nov-16 06:28N 44°08' W 001°28'0 0.3
2017-Nov-16 06:00N 44°08' W 001°28'0 0.3
2017-Nov-16 05:28N 44°08' W 001°28'0 0.4
2017-Nov-16 05:00N 44°08' W 001°28'2 4.9
2017-Nov-16 04:30N 44°08' W 001°32'0 0.5
2017-Nov-16 04:00N 44°08' W 001°31'0 0.4
2017-Nov-16 03:30N 44°09' W 001°31'0 0.4
2017-Nov-16 02:55N 44°09' W 001°31'1 3.0
2017-Nov-16 02:30N 44°07' W 001°30'1 0.9
2017-Nov-16 00:52N 44°07' W 001°32'0 0.2
2017-Nov-16 00:29N 44°07' W 001°32'1 1.3
2017-Nov-16 00:00N 44°08' W 001°32'2 1.1
2017-Nov-15 21:54N 44°10' W 001°31'0 0.1
2017-Nov-15 21:27N 44°10' W 001°31'0 0.1
2017-Nov-15 20:08N 44°10' W 001°31'0 0.3
2017-Nov-15 19:56N 44°10' W 001°31'2 3.9
2017-Nov-15 19:28N 44°11' W 001°30'1 1.0
2017-Nov-15 18:28N 44°11' W 001°31'2 5.0
2017-Nov-15 18:00N 44°09' W 001°32'1 2.2
2017-Nov-15 17:30N 44°10' W 001°33'0 0.8
2017-Nov-15 16:55N 44°10' W 001°34'0 0.5
2017-Nov-15 16:22N 44°10' W 001°33'0 0.4
2017-Nov-15 15:55N 44°10' W 001°33'0 0.3
2017-Nov-15 15:19N 44°10' W 001°33'0 0.3
2017-Nov-15 15:00N 44°11' W 001°33'0 0.2
2017-Nov-15 14:28N 44°11' W 001°33'0 0.3
2017-Nov-15 13:58N 44°11' W 001°33'0 0.2
2017-Nov-15 13:29N 44°11' W 001°33'0 0.2
2017-Nov-15 12:58N 44°11' W 001°33'0 0.2
2017-Nov-15 12:22N 44°11' W 001°33'1 0.4
2017-Nov-15 10:26N 44°12' W 001°32'0 0.4
2017-Nov-15 09:55N 44°12' W 001°32'2 2.5
2017-Nov-15 08:56N 44°09' W 001°31'4 8.6
2017-Nov-15 08:26N 44°06' W 001°34'1 2.3
2017-Nov-15 07:59N 44°07' W 001°33'17 1.0
2017-Nov-14 14:52N 43°51' W 001°43'4 8.6
2017-Nov-14 14:27N 43°48' W 001°46'4 8.7
2017-Nov-14 14:00N 43°44' W 001°49'4 8.4
2017-Nov-14 13:30N 43°41' W 001°52'4 8.3
2017-Nov-14 13:00N 43°37' W 001°55'4 8.3
2017-Nov-14 12:30N 43°34' W 001°58'4 8.1
2017-Nov-14 12:00N 43°30' W 002°00'4 8.0
2017-Nov-14 11:30N 43°27' W 002°03'4 8.4
2017-Nov-14 11:00N 43°23' W 002°07'4 8.9
2017-Nov-14 10:30N 43°20' W 002°10'  

Dump ship's entire track history